createdAt,value
2017-02-13T00:00:26.601Z,2.65
2017-02-13T00:01:06.950Z,2.68
2017-02-13T00:01:47.357Z,2.61
2017-02-13T00:02:28.408Z,2.61
2017-02-13T00:03:08.826Z,2.55
2017-02-13T00:03:49.722Z,2.58
2017-02-13T00:04:30.149Z,2.55
2017-02-13T00:05:10.526Z,2.72
2017-02-13T00:05:51.772Z,2.65
2017-02-13T00:06:32.816Z,2.7
2017-02-13T00:07:14.150Z,2.72
2017-02-13T00:07:55.270Z,2.7
2017-02-13T00:08:35.706Z,2.75
2017-02-13T00:09:16.894Z,2.75
2017-02-13T00:09:57.259Z,2.76
2017-02-13T00:10:37.683Z,2.79
2017-02-13T00:11:19.068Z,2.77
2017-02-13T00:11:59.468Z,2.76
2017-02-13T00:12:39.921Z,2.76
2017-02-13T00:13:20.290Z,2.8
2017-02-13T00:14:00.684Z,2.82
2017-02-13T00:14:41.110Z,2.8
2017-02-13T00:15:21.552Z,2.82
2017-02-13T00:16:01.936Z,2.76
2017-02-13T00:16:42.315Z,2.77
2017-02-13T00:17:23.653Z,2.8
2017-02-13T00:18:04.693Z,2.75
2017-02-13T00:18:47.577Z,2.73
2017-02-13T00:19:27.983Z,2.8
2017-02-13T00:20:08.415Z,2.76
2017-02-13T00:20:48.735Z,2.79
2017-02-13T00:21:29.745Z,2.76
2017-02-13T00:22:11.075Z,2.76
2017-02-13T00:22:52.157Z,2.76
2017-02-13T00:23:32.587Z,2.83
2017-02-13T00:24:12.980Z,2.85
2017-02-13T00:24:53.367Z,2.85
2017-02-13T00:25:35.240Z,2.85
2017-02-13T00:26:15.673Z,2.87
2017-02-13T00:26:56.074Z,2.9
2017-02-13T00:27:37.370Z,2.85
2017-02-13T00:28:18.737Z,2.77
2017-02-13T00:28:59.055Z,2.83
2017-02-13T00:29:39.491Z,2.75
2017-02-13T00:30:34.737Z,2.82
2017-02-13T00:31:19.592Z,2.79
2017-02-13T00:32:00.661Z,2.77
2017-02-13T00:32:44.760Z,2.79
2017-02-13T00:33:26.088Z,2.79
2017-02-13T00:34:07.665Z,2.83
2017-02-13T00:34:48.073Z,2.75
2017-02-13T00:35:28.437Z,2.82
2017-02-13T00:36:08.857Z,2.85
2017-02-13T00:36:49.245Z,2.75
2017-02-13T00:37:30.189Z,2.82
2017-02-13T00:38:10.609Z,2.82
2017-02-13T00:40:25.621Z,2.76
2017-02-13T00:41:11.590Z,2.8
2017-02-13T00:41:59.887Z,2.83
2017-02-13T00:42:48.990Z,2.82
2017-02-13T00:43:34.915Z,2.75
2017-02-13T00:44:15.274Z,2.77
2017-02-13T00:44:55.699Z,2.8
2017-02-13T00:45:36.216Z,2.72
2017-02-13T00:46:16.664Z,2.77
2017-02-13T00:46:57.059Z,2.8
2017-02-13T00:47:38.352Z,2.79
2017-02-13T00:48:19.302Z,2.79
2017-02-13T00:48:59.735Z,2.69
2017-02-13T00:49:40.095Z,2.69
2017-02-13T00:50:20.979Z,2.64
2017-02-13T00:51:01.430Z,2.69
2017-02-13T00:51:41.821Z,2.58
2017-02-13T00:52:22.228Z,2.58
2017-02-13T00:53:02.622Z,2.54
2017-02-13T00:53:45.603Z,2.61
2017-02-13T00:54:26.007Z,2.44
2017-02-13T00:55:06.372Z,2.58
2017-02-13T00:55:46.816Z,2.36
2017-02-13T00:56:31.071Z,2.54
2017-02-13T00:57:11.462Z,2.47
2017-02-13T00:57:52.490Z,2.41
2017-02-13T00:58:38.819Z,2.51
2017-02-13T00:59:19.232Z,2.43
2017-02-13T01:00:00.327Z,2.4
2017-02-13T01:00:41.612Z,2.44
2017-02-13T01:01:22.752Z,2.51
2017-02-13T01:02:03.135Z,2.5
2017-02-13T01:02:43.558Z,2.54
2017-02-13T01:03:23.932Z,2.58
2017-02-13T01:04:05.095Z,2.57
2017-02-13T01:04:45.463Z,2.55
2017-02-13T01:05:28.509Z,2.43
2017-02-13T01:06:09.531Z,2.43
2017-02-13T01:06:49.905Z,2.44
2017-02-13T01:07:31.085Z,2.44
2017-02-13T01:08:11.529Z,2.47
2017-02-13T01:08:51.900Z,2.5
2017-02-13T01:09:32.347Z,2.36
2017-02-13T01:10:12.735Z,2.57
2017-02-13T01:10:54.227Z,2.55
2017-02-13T01:11:34.626Z,2.52
2017-02-13T01:12:15.047Z,2.39
2017-02-13T01:12:55.422Z,2.41
2017-02-13T01:13:37.807Z,2.44
2017-02-13T01:14:18.212Z,2.41
2017-02-13T01:14:58.651Z,2.4
2017-02-13T01:15:39.051Z,2.36
2017-02-13T01:16:19.419Z,2.4
2017-02-13T01:16:59.835Z,2.4
2017-02-13T01:17:40.282Z,2.51
2017-02-13T01:18:20.696Z,2.54
2017-02-13T01:19:01.079Z,2.5
2017-02-13T01:19:41.489Z,2.47
2017-02-13T01:20:21.977Z,2.54
2017-02-13T01:21:02.345Z,2.55
2017-02-13T01:21:42.731Z,2.43
2017-02-13T01:23:32.625Z,2.54
2017-02-13T01:24:21.173Z,2.52
2017-02-13T01:25:10.010Z,2.46
2017-02-13T01:25:58.440Z,2.51
2017-02-13T01:26:46.724Z,2.54
2017-02-13T11:48:52.936Z,17.37
2017-02-13T11:49:34.953Z,17.49
2017-02-13T11:50:16.449Z,17.52
2017-02-13T11:50:57.164Z,17.44
2017-02-13T11:51:37.561Z,17.42
2017-02-13T11:52:17.943Z,17.38
2017-02-13T11:52:58.337Z,17.41
2017-02-13T11:53:38.768Z,17.47
2017-02-13T11:54:19.198Z,17.42
2017-02-13T11:54:59.616Z,17.37
2017-02-13T11:55:40.038Z,17.34
2017-02-13T11:56:20.465Z,17.39
2017-02-13T11:57:00.856Z,17.3
2017-02-13T11:57:41.301Z,17.19
2017-02-13T11:58:21.726Z,17.22
2017-02-13T11:59:02.159Z,17.16
2017-02-13T11:59:42.554Z,17.1
2017-02-13T12:00:22.958Z,17.09
2017-02-13T12:01:03.420Z,16.98
2017-02-13T12:01:43.846Z,16.82
2017-02-13T12:02:24.328Z,16.76
2017-02-13T12:03:04.693Z,16.69
2017-02-13T12:03:45.124Z,16.72
2017-02-13T12:04:25.534Z,16.55
2017-02-13T12:05:05.944Z,16.49
2017-02-13T12:05:46.381Z,16.41
2017-02-13T12:06:26.771Z,16.43
2017-02-13T12:07:07.230Z,16.37
2017-02-13T12:07:47.597Z,16.29
2017-02-13T12:08:28.026Z,16.43
2017-02-13T12:09:08.415Z,16.46
2017-02-13T12:09:48.845Z,16.46
2017-02-13T12:10:29.372Z,16.61
2017-02-13T12:11:09.856Z,16.68
2017-02-13T12:11:50.285Z,16.68
2017-02-13T12:12:30.694Z,16.69
2017-02-13T12:13:11.126Z,16.74
2017-02-13T12:13:51.570Z,16.74
2017-02-13T12:14:32.014Z,16.65
2017-02-13T12:15:12.444Z,16.66
2017-02-13T12:15:52.871Z,16.69
2017-02-13T12:16:33.255Z,16.84
2017-02-13T12:17:13.679Z,17.01
2017-02-13T12:17:54.116Z,17.05
2017-02-13T12:18:35.037Z,17.12
2017-02-13T12:19:15.481Z,17.13
2017-02-13T12:19:55.938Z,17.22
2017-02-13T12:20:37.420Z,17.22
2017-02-13T12:21:17.871Z,17.35
2017-02-13T12:21:58.280Z,17.59
2017-02-13T12:22:38.750Z,17.73
2017-02-13T12:23:19.916Z,17.93
2017-02-13T12:24:00.337Z,18.08
2017-02-13T12:24:40.724Z,18.23
2017-02-13T12:25:21.119Z,18.3
2017-02-13T12:26:01.550Z,18.24
2017-02-13T12:26:41.953Z,18.3
2017-02-13T12:27:22.338Z,18.3
2017-02-13T12:28:03.843Z,18.33
2017-02-13T12:28:44.339Z,18.45
2017-02-13T12:29:24.666Z,18.43
2017-02-13T12:30:05.107Z,18.36
2017-02-13T12:30:45.510Z,18.36
2017-02-13T12:31:25.937Z,18.13
2017-02-13T12:32:07.336Z,17.93
2017-02-13T12:32:47.741Z,17.94
2017-02-13T12:33:28.208Z,17.91
2017-02-13T12:34:08.636Z,17.91
2017-02-13T12:34:49.013Z,17.94
2017-02-13T12:35:29.463Z,18.09
2017-02-13T12:36:09.885Z,18.11
2017-02-13T12:36:50.290Z,17.97
2017-02-13T12:37:30.689Z,17.82
2017-02-13T12:38:11.104Z,17.57
2017-02-13T12:38:51.506Z,17.42
2017-02-13T12:39:31.967Z,17.14
2017-02-13T12:40:12.487Z,17.04
2017-02-13T12:40:52.919Z,16.99
2017-02-13T12:41:34.033Z,17.02
2017-02-13T12:42:14.431Z,16.98
2017-02-13T12:42:54.855Z,17.01
2017-02-13T12:43:35.249Z,16.95
2017-02-13T12:45:31.447Z,16.87
2017-02-13T12:45:31.842Z,16.87
2017-02-13T12:45:36.487Z,16.74
2017-02-13T12:46:16.939Z,16.72
2017-02-13T12:46:57.393Z,16.8
2017-02-13T12:47:38.016Z,16.82
2017-02-13T12:48:18.382Z,16.84
2017-02-13T12:48:58.784Z,16.86
2017-02-13T12:49:39.162Z,16.98
2017-02-13T12:50:19.600Z,16.84
2017-02-13T12:51:00.027Z,16.8
2017-02-13T12:51:40.447Z,16.82
2017-02-13T12:52:21.485Z,16.91
2017-02-13T12:53:04.559Z,17.02
2017-02-13T12:53:44.991Z,17.05
2017-02-13T12:54:25.448Z,17.09
2017-02-13T12:55:05.906Z,17.05
2017-02-13T12:55:46.276Z,17.16
2017-02-13T12:56:26.735Z,17.09
2017-02-13T12:57:07.691Z,17.02
2017-02-13T12:57:48.983Z,17.13
2017-02-13T12:58:29.405Z,17.19
2017-02-13T12:59:09.823Z,17.28
2017-02-13T12:59:50.258Z,17.27
2017-02-13T13:00:30.662Z,17.24
2017-02-13T13:01:11.158Z,17.31
2017-02-13T13:01:51.616Z,17.38
2017-02-13T13:02:33.699Z,17.5
2017-02-13T13:03:15.599Z,17.56
2017-02-13T13:03:56.022Z,17.6
2017-02-13T13:04:36.455Z,17.53
2017-02-13T13:05:17.671Z,17.63
2017-02-13T13:05:58.097Z,17.72
2017-02-13T13:06:38.580Z,17.76
2017-02-13T13:07:18.961Z,17.87
2017-02-13T13:07:59.443Z,17.87
2017-02-13T13:08:39.930Z,17.86
2017-02-13T13:09:20.335Z,17.86
2017-02-13T13:10:00.726Z,17.79
2017-02-13T13:10:42.034Z,17.75
2017-02-13T13:11:23.175Z,17.69
2017-02-13T13:12:04.676Z,17.76
2017-02-13T13:12:45.583Z,17.65
2017-02-13T13:13:26.723Z,17.66
2017-02-13T13:14:08.097Z,17.59
2017-02-13T13:14:48.564Z,17.63
2017-02-13T13:15:28.968Z,17.47
2017-02-13T13:16:11.012Z,17.41
2017-02-13T13:16:52.011Z,17.39
2017-02-13T13:17:32.429Z,17.44
2017-02-13T13:18:13.381Z,17.32
2017-02-13T13:18:54.980Z,17.34
2017-02-13T13:19:36.299Z,17.19
2017-02-13T13:20:18.619Z,17.12
2017-02-13T13:20:59.092Z,16.86
2017-02-13T13:21:39.521Z,16.72
2017-02-13T13:22:19.924Z,16.51
2017-02-13T13:23:00.460Z,16.43
2017-02-13T13:23:41.779Z,16.37
2017-02-13T13:24:22.867Z,16.21
2017-02-13T13:25:03.462Z,16.06
2017-02-13T13:25:45.020Z,15.98
2017-02-13T13:28:02.167Z,15.88
2017-02-13T13:28:47.807Z,16.02
2017-02-13T13:29:35.987Z,15.98
2017-02-13T13:30:23.966Z,15.92
2017-02-13T13:31:12.933Z,15.9
2017-02-13T13:33:38.851Z,15.76
2017-02-13T13:35:56.607Z,15.62
2017-02-13T13:36:44.333Z,15.63
2017-02-13T13:37:32.285Z,15.63
2017-02-13T13:38:20.807Z,15.52
2017-02-13T13:39:09.209Z,15.52
2017-02-13T13:39:55.694Z,15.5
2017-02-13T13:40:36.133Z,15.48
2017-02-13T13:41:17.463Z,15.54
2017-02-13T13:42:01.406Z,15.5
2017-02-13T17:12:30.052Z,7.22
2017-02-13T17:13:17.548Z,7.04
2017-02-13T17:14:06.275Z,7.15
2017-02-13T17:14:54.782Z,7.05
2017-02-13T17:15:43.305Z,7.07
2017-02-13T17:16:32.212Z,7.07
2017-02-13T17:17:20.526Z,7.03
2017-02-13T17:18:09.096Z,7
2017-02-13T17:18:57.824Z,7.01
2017-02-13T17:19:46.783Z,6.95
2017-02-13T17:20:35.061Z,6.95
2017-02-13T17:22:57.386Z,6.82
2017-02-13T17:23:46.575Z,6.87
2017-02-13T17:24:34.702Z,6.87
2017-02-13T17:25:23.782Z,6.78
2017-02-13T17:26:13.054Z,6.77
2017-02-13T17:27:01.876Z,6.7
2017-02-13T17:27:50.200Z,6.71
2017-02-13T17:28:38.977Z,6.85
2017-02-13T17:29:27.377Z,6.78
2017-02-13T17:30:16.088Z,6.71
2017-02-13T17:31:04.667Z,6.72
2017-02-13T17:31:53.592Z,6.57
2017-02-13T17:32:42.088Z,6.67
2017-02-13T17:33:30.586Z,6.57
2017-02-13T17:34:19.128Z,6.6
2017-02-13T17:35:07.855Z,6.59
2017-02-13T17:35:56.664Z,6.53
2017-02-13T17:36:45.329Z,6.57
2017-02-13T17:37:33.325Z,6.53
2017-02-13T17:38:22.283Z,6.53
2017-02-13T17:39:10.864Z,6.38
2017-02-13T17:39:59.563Z,6.49
2017-02-13T17:40:47.675Z,6.43
2017-02-13T17:41:36.313Z,6.41
2017-02-13T17:42:24.949Z,6.46
2017-02-13T17:43:13.619Z,6.36
2017-02-13T17:44:02.527Z,6.39
2017-02-13T17:44:51.158Z,6.38
2017-02-13T17:45:39.400Z,6.38
2017-02-13T17:46:28.620Z,6.36
2017-02-13T17:47:17.887Z,6.28
2017-02-13T17:48:06.390Z,6.29
2017-02-13T17:48:55.151Z,6.32
2017-02-13T17:49:45.892Z,6.25
2017-02-13T17:50:34.698Z,6.26
2017-02-13T18:13:56.803Z,6.06
2017-02-13T18:14:45.393Z,6.05
2017-02-13T18:15:32.633Z,6.05
2017-02-13T18:16:21.098Z,6.02
2017-02-13T18:17:09.713Z,5.99
2017-02-13T18:17:58.714Z,6.06
2017-02-13T18:18:47.593Z,6.06
2017-02-13T18:19:36.543Z,6.05
2017-02-13T18:20:24.717Z,6.06
2017-02-13T18:21:13.535Z,6.15
2017-02-13T18:22:02.572Z,6.19
2017-02-13T18:22:50.959Z,6.07
2017-02-13T18:23:43.606Z,6.17
2017-02-13T18:24:32.502Z,6.19
2017-02-13T18:25:20.843Z,6.16
2017-02-13T18:26:09.611Z,6.15
2017-02-13T18:26:58.067Z,6.17
2017-02-13T18:27:46.957Z,6.16
2017-02-13T18:28:35.179Z,6.12
2017-02-13T18:29:23.653Z,6.16
2017-02-13T18:30:12.692Z,6.2
2017-02-13T18:31:01.026Z,6.13
2017-02-13T18:31:49.784Z,6.06
2017-02-13T18:32:38.487Z,6.17
2017-02-13T18:33:26.632Z,6.12
2017-02-13T18:34:15.672Z,6.15
2017-02-13T18:35:04.083Z,6.22
2017-02-13T18:35:52.906Z,6.17
2017-02-13T18:36:41.413Z,6.19
2017-02-13T18:37:30.663Z,6.17
2017-02-13T18:38:19.561Z,6.06
2017-02-13T18:39:08.004Z,6.22
2017-02-13T18:39:56.512Z,6.15
2017-02-13T18:40:46.039Z,6.13
2017-02-13T18:41:34.459Z,6.01
2017-02-13T18:42:22.804Z,6.09
2017-02-13T18:43:12.159Z,6.05
2017-02-13T18:44:00.430Z,6.07
2017-02-13T18:44:48.720Z,6.07
2017-02-13T18:45:37.273Z,6.09
2017-02-13T18:46:26.685Z,6.02
2017-02-13T18:47:15.050Z,6.06
2017-02-13T18:48:03.416Z,5.98
2017-02-13T18:48:52.106Z,6.07
2017-02-13T18:49:41.536Z,6.09
2017-02-13T18:50:30.104Z,6.1
2017-02-13T18:51:18.415Z,6.07
2017-02-13T18:52:08.585Z,5.99
2017-02-13T18:52:57.143Z,5.98
2017-02-13T18:53:45.840Z,6.05
2017-02-13T18:54:34.847Z,6.05
2017-02-13T18:55:24.031Z,6.1
2017-02-13T18:56:12.575Z,6.06
2017-02-13T18:57:01.180Z,6.07
2017-02-13T18:57:49.603Z,6.05
2017-02-13T18:58:38.503Z,6.01
2017-02-13T18:59:28.333Z,6.06
2017-02-13T19:00:17.074Z,6.09
2017-02-13T19:01:06.088Z,5.97
2017-02-13T19:01:54.167Z,5.98
2017-02-13T19:02:43.018Z,6.02
2017-02-13T19:03:31.737Z,6.02
2017-02-13T19:04:20.657Z,6.01
2017-02-13T19:05:08.918Z,5.99
2017-02-13T19:05:58.351Z,5.98
2017-02-13T19:06:46.474Z,6.06
2017-02-13T19:07:35.581Z,6.01
2017-02-13T19:08:23.748Z,5.97
2017-02-13T19:09:13.074Z,6.01
2017-02-13T19:10:00.879Z,6.02
2017-02-13T19:10:50.107Z,6.01
2017-02-13T19:11:38.482Z,5.88
2017-02-13T19:12:27.175Z,5.91
2017-02-13T19:13:15.609Z,5.88
2017-02-13T19:14:04.287Z,5.84
2017-02-13T19:14:53.314Z,5.88
2017-02-13T19:15:41.686Z,5.8
2017-02-13T19:16:30.734Z,5.83
2017-02-13T19:17:19.346Z,5.87
2017-02-13T19:18:09.007Z,5.83
2017-02-13T19:18:57.472Z,5.81
2017-02-13T19:19:46.207Z,5.77
2017-02-13T19:20:34.308Z,5.9
2017-02-13T19:21:23.487Z,5.8
2017-02-13T19:22:11.704Z,5.73
2017-02-13T19:23:00.452Z,5.81
2017-02-13T19:23:49.565Z,5.8
2017-02-13T19:24:38.137Z,5.79
2017-02-13T19:25:26.497Z,5.73
2017-02-13T19:26:15.470Z,5.74
2017-02-13T19:27:03.679Z,5.77
2017-02-13T19:27:52.331Z,5.72
2017-02-13T19:28:40.778Z,5.7
2017-02-13T19:29:29.968Z,5.77
2017-02-13T19:30:18.253Z,5.67
2017-02-13T19:31:07.471Z,5.7
2017-02-13T19:31:55.957Z,5.76
2017-02-13T19:32:44.544Z,5.73
2017-02-13T19:33:32.759Z,5.72
2017-02-13T19:34:21.641Z,5.65
2017-02-13T19:35:10.445Z,5.72
2017-02-13T19:35:59.157Z,5.67
2017-02-13T19:36:47.526Z,5.64
2017-02-13T19:37:36.799Z,5.7
2017-02-13T19:38:25.508Z,5.69
2017-02-13T19:39:14.285Z,5.65
2017-02-13T19:40:02.330Z,5.69
2017-02-13T19:40:50.964Z,5.62
2017-02-13T19:41:39.964Z,5.67
2017-02-13T19:42:26.139Z,5.62
2017-02-13T19:43:07.630Z,5.58
2017-02-13T19:43:48.182Z,5.52
2017-02-13T19:44:28.515Z,5.59
2017-02-13T19:45:09.004Z,5.58
2017-02-13T19:45:50.175Z,5.55
2017-02-13T19:46:30.541Z,5.56
2017-02-13T19:47:11.154Z,5.55
2017-02-13T19:47:51.512Z,5.55
2017-02-13T19:48:32.158Z,5.52
2017-02-13T19:49:12.575Z,5.52
2017-02-13T19:49:53.828Z,5.56
2017-02-13T19:50:34.213Z,5.55
2017-02-13T19:51:15.470Z,5.55
2017-02-13T19:51:55.877Z,5.62
2017-02-13T19:52:36.291Z,5.61
2017-02-13T19:53:16.685Z,5.55
2017-02-13T19:53:58.042Z,5.58
2017-02-13T19:54:38.396Z,5.51
2017-02-13T19:55:20.551Z,5.46
2017-02-13T19:56:01.476Z,5.52
2017-02-13T19:56:42.816Z,5.52
2017-02-13T19:57:23.207Z,5.43
2017-02-13T19:58:03.619Z,5.47
2017-02-13T19:58:44.878Z,5.44
2017-02-13T19:59:25.299Z,5.44
2017-02-13T20:00:05.702Z,5.41
2017-02-13T20:00:46.054Z,5.41
2017-02-13T20:01:27.027Z,5.41
2017-02-13T20:02:07.953Z,5.36
2017-02-13T20:02:48.406Z,5.41
2017-02-13T20:03:28.793Z,5.37
2017-02-13T20:04:09.236Z,5.4
2017-02-13T20:04:49.653Z,5.49
2017-02-13T20:05:30.016Z,5.41
2017-02-13T20:06:10.440Z,5.44
2017-02-13T20:06:51.636Z,5.43
2017-02-13T20:07:36.541Z,5.4
2017-02-13T20:08:17.641Z,5.38
2017-02-13T20:08:58.012Z,5.34
2017-02-13T20:09:40.167Z,5.33
2017-02-13T20:11:59.276Z,5.33
2017-02-13T20:12:48.128Z,5.31
2017-02-13T20:13:35.327Z,5.26
2017-02-13T20:14:23.853Z,5.26
2017-02-13T20:15:12.542Z,5.33
2017-02-13T20:16:00.959Z,5.22
2017-02-13T20:16:49.713Z,5.23
2017-02-13T20:17:38.257Z,5.23
2017-02-13T20:18:26.767Z,5.25
2017-02-13T20:19:15.395Z,5.12
2017-02-13T20:20:04.107Z,5.2
2017-02-13T20:20:53.159Z,5.13
2017-02-13T20:21:41.408Z,5.15
2017-02-13T20:26:55.237Z,5.16
2017-02-13T20:27:43.655Z,5.25
2017-02-13T20:28:32.397Z,5.12
2017-02-13T20:29:20.744Z,5.12
2017-02-13T20:30:09.127Z,5.12
2017-02-13T20:30:57.913Z,5.15
2017-02-13T20:31:46.879Z,5.07
2017-02-13T20:33:38.692Z,5.04
2017-02-13T20:34:26.766Z,5.07
2017-02-13T20:35:14.274Z,5.1
2017-02-13T20:36:03.278Z,5.01
2017-02-13T20:36:51.775Z,5.02
2017-02-13T20:37:44.335Z,5
2017-02-13T20:38:34.669Z,5.01
2017-02-13T20:39:23.875Z,5
2017-02-13T20:40:12.264Z,5.04
2017-02-13T20:41:00.501Z,4.98
2017-02-13T20:41:48.962Z,5
2017-02-13T20:42:37.863Z,4.94
2017-02-13T20:43:26.043Z,4.97
2017-02-13T20:44:14.771Z,4.87
2017-02-13T20:45:03.780Z,4.95
2017-02-13T20:45:51.969Z,4.9
2017-02-13T20:46:40.584Z,4.89
2017-02-13T20:47:29.091Z,4.86
2017-02-13T20:48:18.353Z,4.9
2017-02-13T20:49:07.681Z,4.9
2017-02-13T20:49:56.336Z,4.86
2017-02-13T20:50:44.824Z,4.92
2017-02-13T20:51:33.980Z,4.76
2017-02-13T20:52:22.554Z,4.76
2017-02-13T20:53:11.249Z,4.67
2017-02-13T20:54:00.217Z,4.68
2017-02-13T20:54:48.811Z,4.63
2017-02-13T20:55:37.068Z,4.61
2017-02-13T20:56:26.065Z,4.58
2017-02-13T20:57:14.923Z,4.5
2017-02-13T20:58:03.082Z,4.52
2017-02-13T20:58:51.770Z,4.43
2017-02-13T20:59:40.868Z,4.42
2017-02-13T21:30:03.171Z,4.4
2017-02-13T21:30:51.355Z,4.36
2017-02-13T21:31:38.589Z,4.34
2017-02-13T21:33:57.939Z,4.45
2017-02-13T21:34:46.862Z,4.32
2017-02-13T21:35:33.331Z,4.31
2017-02-13T21:36:22.023Z,4.31
2017-02-13T21:37:10.408Z,4.32
2017-02-13T21:46:51.454Z,4.3
2017-02-13T21:47:40.377Z,4.2
2017-02-13T21:48:29.181Z,4.25
2017-02-13T21:50:22.066Z,4.2
2017-02-13T21:57:31.137Z,4.14
2017-02-13T21:58:24.925Z,4.12
2017-02-13T21:59:13.871Z,4
2017-02-13T22:01:04.337Z,4.03
2017-02-13T22:01:52.789Z,3.94
2017-02-13T22:02:41.770Z,3.91
2017-02-13T22:03:30.507Z,3.86
2017-02-13T22:04:18.741Z,3.85
2017-02-13T22:05:07.232Z,3.82
2017-02-13T22:05:57.470Z,3.78
2017-02-13T22:06:45.375Z,3.84
2017-02-13T22:07:34.014Z,3.89
2017-02-13T22:08:22.987Z,3.7
2017-02-13T22:15:18.053Z,3.86
2017-02-13T22:16:06.541Z,3.84
2017-02-13T22:16:54.981Z,3.74
2017-02-13T22:17:43.822Z,3.89
2017-02-13T22:18:32.132Z,3.81
2017-02-13T22:19:20.816Z,3.74
2017-02-13T22:20:09.350Z,3.84
2017-02-13T22:20:57.903Z,3.84
2017-02-13T22:21:46.827Z,3.66
2017-02-13T22:22:35.370Z,3.7
2017-02-13T22:23:26.764Z,3.64
2017-02-13T22:24:15.442Z,3.66
2017-02-13T22:25:04.873Z,3.67
2017-02-13T22:25:54.246Z,3.68
2017-02-13T22:26:42.490Z,3.78
2017-02-13T22:27:38.321Z,3.71
2017-02-13T22:34:44.977Z,3.64
2017-02-13T22:35:33.145Z,3.66
2017-02-13T22:36:21.995Z,3.64
2017-02-13T22:37:10.612Z,3.59
2017-02-13T22:37:59.444Z,3.61
2017-02-13T22:38:47.611Z,3.61
2017-02-13T22:39:36.579Z,3.58
2017-02-13T22:40:22.344Z,3.66
2017-02-13T22:41:11.285Z,3.58
2017-02-13T22:41:59.953Z,3.55
2017-02-13T22:42:48.821Z,3.55
2017-02-13T22:43:37.085Z,3.55
2017-02-13T22:44:25.814Z,3.55
2017-02-13T22:45:14.285Z,3.56
2017-02-13T22:46:03.085Z,3.66
2017-02-13T22:46:51.491Z,3.61
2017-02-13T22:47:40.092Z,3.61
2017-02-13T22:48:29.082Z,3.61
2017-02-13T22:49:17.929Z,3.61
2017-02-13T22:50:04.370Z,3.61
2017-02-13T22:50:44.669Z,3.63
2017-02-13T22:51:26.803Z,3.59
2017-02-13T22:52:07.206Z,3.63
2017-02-13T22:52:47.667Z,3.64
2017-02-13T22:53:29.357Z,3.64
2017-02-13T22:54:13.304Z,3.59
2017-02-13T22:54:53.707Z,3.63
2017-02-13T22:55:36.170Z,3.58
2017-02-13T22:56:16.632Z,3.61
2017-02-13T22:56:57.525Z,3.58
2017-02-13T22:57:37.957Z,3.61
2017-02-13T22:58:18.366Z,3.56
2017-02-13T22:59:00.294Z,3.53
2017-02-13T22:59:41.474Z,3.56
2017-02-13T23:00:21.886Z,3.53
2017-02-13T23:01:02.322Z,3.53
2017-02-13T23:01:42.996Z,3.5
2017-02-13T23:03:58.173Z,3.41
2017-02-13T23:04:44.038Z,3.53
2017-02-13T23:11:25.826Z,3.41
2017-02-13T23:12:14.893Z,3.4
2017-02-13T23:13:03.229Z,3.43
2017-02-13T23:13:52.085Z,3.43
2017-02-13T23:14:40.173Z,3.37
2017-02-13T23:15:28.898Z,3.4
2017-02-13T23:16:17.258Z,3.26
2017-02-13T23:17:03.692Z,3.27
2017-02-13T23:17:52.135Z,3.24
2017-02-13T23:18:40.762Z,3.34
2017-02-13T23:24:12.350Z,3.08
2017-02-13T23:26:15.333Z,2.95
2017-02-13T23:27:02.485Z,3.01
2017-02-13T23:27:51.140Z,2.91
2017-02-13T23:28:39.821Z,2.93
2017-02-13T23:29:28.521Z,2.8
2017-02-13T23:30:16.965Z,2.9
2017-02-13T23:31:05.579Z,2.87
2017-02-13T23:31:53.964Z,2.8
2017-02-13T23:32:42.886Z,2.82
2017-02-13T23:33:31.048Z,2.75
2017-02-13T23:34:19.779Z,2.65
2017-02-13T23:35:08.739Z,2.65
2017-02-13T23:35:57.215Z,2.65
2017-02-13T23:36:45.435Z,2.58
2017-02-13T23:37:33.834Z,2.57
2017-02-13T23:38:22.426Z,2.55
2017-02-13T23:39:11.476Z,2.54
2017-02-13T23:40:00.281Z,2.51
2017-02-13T23:40:48.424Z,2.51
2017-02-13T23:41:37.212Z,2.47
2017-02-13T23:42:25.502Z,2.44
2017-02-13T23:43:14.038Z,2.36
2017-02-13T23:44:02.649Z,2.33
2017-02-13T23:44:51.072Z,2.22
2017-02-13T23:45:39.886Z,2.25
2017-02-13T23:46:28.599Z,2.18
2017-02-13T23:47:16.975Z,2.19
2017-02-13T23:48:05.488Z,2.14
2017-02-13T23:48:54.464Z,2.04
2017-02-13T23:49:43.409Z,1.89
2017-02-13T23:50:32.045Z,1.93
2017-02-13T23:51:22.135Z,1.82
2017-02-13T23:52:10.635Z,1.76
2017-02-13T23:52:59.803Z,1.74
2017-02-13T23:53:48.851Z,1.74
2017-02-13T23:54:37.645Z,1.64
2017-02-13T23:55:26.609Z,1.63
2017-02-13T23:56:15.416Z,1.68
2017-02-13T23:57:03.538Z,1.61
2017-02-13T23:57:52.833Z,1.63
2017-02-13T23:58:40.997Z,1.53
2017-02-13T23:59:29.972Z,1.57
